Terminal Aerodrome Forecast
Issued by NWS

Home | Current Version | Previous Version | Text Only | Print | Product List | Glossary On
Versions: 1 2 3 4 5 6 7 8 9 10 11 12 13 14 15 16 17 18 19 20 21 22 23 24 25 26 27 28 29 30 31 32 33 34 35 36 37 38 39
000
FTUS43 KDDC 171649 AAC
TAFGCK
TAF AMD
KGCK 171649Z 1717/1812 04013KT P6SM OVC008
     FM171900 07009KT P6SM OVC020
     FM172100 12009KT P6SM SCT030 BKN250
     FM180100 15008KT P6SM BKN250=

USA.gov is the U.S. government's official web portal to all federal, state and local government web resources and services.